Weather at Mont Louis La Quillane Airfield

Public forecast

Using degrees Celsius for public forecast. Weather courtesy of forecast.io.

Closest aviation weather report (METAR) to Mont Louis La Quillane Airfield

Report is more than 2 hours old.

Closest report is Pirineus - la Seu d'Urgel Airport, 33.8 nm (62.6 km) WSW. Retrieved 2020/09/24 16:30 UTC (3 hours ago):

LESU 241630Z 23009KT 180V260 9999 SCT058 20/08 Q1011

Closest aviation forecast (TAF) to Mont Louis La Quillane Airfield

Closest forecast is Pirineus - la Seu d'Urgel Airport, 33.8 nm (62.6 km) WSW. Retrieved 2020/09/24 15:00 UTC (5 hours ago):

TAF LESU 241400Z 2415/2515 25010KT 9999 FEW050 TX16/2514Z TN07/2506Z BECMG 2418/2420 VRB03KT BECMG 2508/2510 30012KT